Time;durP1;ratioP1;P1;durP2;ratioP2;P2;SDS_P1;SDS_P2;PMS_P1;PMS_P2;Temp;Humidity;BMP_temperature;BMP_pressure;BME280_temperature;BME280_humidity;BME280_pressure;Samples;Min_cycle;Max_cycle;Signal;HPM_P1;HPM_P2
2023/06/04 00:02:03;;;;;;;10.00;3.33;;;;;;;11.79;70.15;101958.22;5083491;28;20044;-73
2023/06/04 00:04:29;;;;;;;10.05;3.50;;;;;;;11.80;70.07;101954.56;5067115;28;20028;-74
2023/06/04 00:06:55;;;;;;;11.73;3.45;;;;;;;11.78;71.48;101949.25;5088547;28;20029;-73
2023/06/04 00:09:20;;;;;;;10.10;3.10;;;;;;;11.78;70.12;101949.25;5070293;28;20103;-73
2023/06/04 00:11:46;;;;;;;11.68;3.42;;;;;;;11.78;72.30;101945.72;5070543;28;20058;-74
2023/06/04 00:14:12;;;;;;;10.93;3.20;;;;;;;11.75;72.05;101946.75;5089551;28;20025;-74
2023/06/04 00:16:37;;;;;;;11.00;3.25;;;;;;;11.75;72.26;101943.22;5081400;28;20085;-74
2023/06/04 00:19:03;;;;;;;11.88;3.22;;;;;;;11.74;71.70;101942.31;5079412;28;20033;-74
2023/06/04 00:21:28;;;;;;;15.10;3.60;;;;;;;11.73;71.49;101946.00;5063419;28;20024;-73
2023/06/04 00:23:54;;;;;;;11.40;3.53;;;;;;;11.69;72.91;101945.28;5088614;28;20083;-73
2023/06/04 00:26:20;;;;;;;12.35;3.55;;;;;;;11.72;72.47;101944.25;5088422;28;20055;-74
2023/06/04 00:28:45;;;;;;;9.98;3.20;;;;;;;11.72;71.42;101938.88;5088014;28;20120;-74
2023/06/04 00:31:12;;;;;;;11.18;3.25;;;;;;;11.68;72.20;101942.69;5087943;28;20510;-74
2023/06/04 00:33:38;;;;;;;11.60;3.83;;;;;;;11.66;73.38;101944.63;5067677;28;20047;-73
2023/06/04 00:36:04;;;;;;;9.00;3.45;;;;;;;11.67;72.13;101938.25;5086287;28;20495;-73
2023/06/04 00:38:29;;;;;;;9.50;2.97;;;;;;;11.66;72.56;101941.94;5062615;28;20096;-73
2023/06/04 00:40:54;;;;;;;10.43;3.83;;;;;;;11.62;73.25;101937.69;5086065;28;20019;-73
2023/06/04 00:43:20;;;;;;;9.90;3.25;;;;;;;11.59;72.71;101936.03;5067942;28;20028;-73
2023/06/04 00:45:45;;;;;;;8.40;3.08;;;;;;;11.57;73.51;101947.84;5089822;28;20031;-73
2023/06/04 00:48:11;;;;;;;14.48;3.38;;;;;;;11.56;73.69;101938.91;5089713;28;20028;-74
2023/06/04 00:50:38;;;;;;;10.80;3.38;;;;;;;11.51;73.43;101941.91;5088737;28;20043;-74
2023/06/04 00:53:04;;;;;;;8.85;3.40;;;;;;;11.48;73.67;101936.69;5088331;28;20039;-73
2023/06/04 00:55:31;;;;;;;10.32;3.40;;;;;;;11.46;73.48;101935.91;5085490;28;20036;-74
2023/06/04 00:57:56;;;;;;;8.73;3.03;;;;;;;11.41;74.01;101929.94;5070902;28;20183;-73
2023/06/04 01:00:22;;;;;;;10.60;3.72;;;;;;;11.39;73.53;101933.69;5070669;28;20095;-73
2023/06/04 01:02:53;;;;;;;12.40;3.80;;;;;;;11.38;74.37;101932.81;5083548;28;20044;-74
2023/06/04 01:05:51;;;;;;;10.70;3.50;;;;;;;11.42;72.84;101939.75;5089025;28;20024;-73
2023/06/04 01:08:18;;;;;;;11.70;3.33;;;;;;;11.29;74.74;101936.94;5072667;28;20123;-73
2023/06/04 01:10:53;;;;;;;10.55;3.33;;;;;;;11.29;75.07;101936.03;5086450;28;20032;-74
2023/06/04 01:13:18;;;;;;;19.85;4.10;;;;;;;11.22;75.78;101938.25;5086935;28;20029;-73
2023/06/04 01:15:44;;;;;;;13.10;3.72;;;;;;;11.17;75.80;101943.91;5066518;28;20051;-73
2023/06/04 01:18:10;;;;;;;14.20;3.67;;;;;;;11.11;75.62;101930.81;5057187;28;20056;-73
2023/06/04 01:20:47;;;;;;;9.13;3.17;;;;;;;11.09;75.82;101938.09;5072824;28;20101;-73
2023/06/04 01:23:15;;;;;;;10.75;3.55;;;;;;;11.00;76.50;101952.06;5091908;28;20024;-74
2023/06/04 01:25:43;;;;;;;13.10;3.58;;;;;;;10.95;76.66;101943.38;5089392;28;20040;-73
2023/06/04 01:28:11;;;;;;;11.77;3.95;;;;;;;10.96;77.00;101931.69;5085483;28;20021;-74
2023/06/04 01:30:42;;;;;;;7.93;3.10;;;;;;;10.97;76.77;101946.88;5088491;28;20039;-74
2023/06/04 01:33:10;;;;;;;10.70;3.15;;;;;;;10.93;77.30;101942.63;5092030;28;20048;-73
2023/06/04 01:35:35;;;;;;;10.50;3.85;;;;;;;10.90;77.34;101940.09;5091787;28;20024;-73
2023/06/04 01:38:01;;;;;;;11.73;3.30;;;;;;;10.84;77.72;101944.00;5092717;28;20050;-73
2023/06/04 01:40:27;;;;;;;11.05;3.53;;;;;;;10.80;77.87;101946.00;5092273;28;20028;-74
2023/06/04 01:42:52;;;;;;;12.27;3.30;;;;;;;10.81;77.45;101942.34;5091717;28;20028;-73
2023/06/04 01:45:18;;;;;;;11.77;3.20;;;;;;;10.80;78.44;101946.00;5072288;28;20093;-73
2023/06/04 01:47:43;;;;;;;12.23;3.50;;;;;;;10.77;78.41;101932.72;5073570;28;20048;-73
2023/06/04 01:50:09;;;;;;;7.97;3.00;;;;;;;10.75;78.72;101931.09;5074543;28;20115;-73
2023/06/04 01:52:38;;;;;;;11.30;3.22;;;;;;;10.70;77.89;101934.03;5091557;28;20036;-73
2023/06/04 01:55:04;;;;;;;14.37;3.97;;;;;;;10.70;78.38;101943.91;5091394;28;20021;-73
2023/06/04 01:57:30;;;;;;;9.88;3.25;;;;;;;10.65;79.32;101938.81;5090834;28;20291;-73
2023/06/04 01:59:56;;;;;;;9.80;3.15;;;;;;;10.67;79.19;101939.56;5073133;28;20037;-73
2023/06/04 02:02:21;;;;;;;12.02;3.33;;;;;;;10.66;79.21;101943.25;5058491;28;20035;-73
2023/06/04 02:04:47;;;;;;;12.75;3.15;;;;;;;10.65;78.64;101936.13;5073460;28;20066;-73
2023/06/04 02:07:17;;;;;;;9.23;3.25;;;;;;;10.63;79.64;101936.22;5091316;28;20024;-73
2023/06/04 02:09:43;;;;;;;11.93;3.10;;;;;;;10.65;79.93;101936.97;5077567;28;20024;-73
2023/06/04 02:12:08;;;;;;;11.00;3.33;;;;;;;10.59;79.98;101942.72;5090743;28;20039;-73
2023/06/04 02:14:33;;;;;;;9.65;3.05;;;;;;;10.57;78.35;101932.97;5091741;28;20008;-73
2023/06/04 02:16:59;;;;;;;14.32;3.53;;;;;;;10.54;79.91;101938.53;5064802;28;20043;-73
2023/06/04 02:19:25;;;;;;;13.27;3.80;;;;;;;10.58;79.08;101932.03;5074993;28;20063;-73
2023/06/04 02:21:51;;;;;;;11.20;3.65;;;;;;;10.54;79.15;101938.53;5090907;28;20136;-73
2023/06/04 02:24:16;;;;;;;10.63;3.50;;;;;;;10.54;78.96;101930.47;5090530;28;20173;-73
2023/06/04 02:26:42;;;;;;;12.02;3.75;;;;;;;10.49;79.97;101926.22;5090182;28;20051;-73
2023/06/04 02:29:07;;;;;;;9.73;3.42;;;;;;;10.47;79.52;101925.44;5090059;28;20047;-73
2023/06/04 02:31:32;;;;;;;12.57;3.60;;;;;;;10.46;79.94;101931.75;5089635;28;20040;-73
2023/06/04 02:33:58;;;;;;;10.85;3.20;;;;;;;10.42;79.78;101935.56;5069875;28;20064;-73
2023/06/04 02:36:23;;;;;;;7.07;2.80;;;;;;;10.42;80.39;101946.31;5059975;28;20041;-73
2023/06/04 02:38:48;;;;;;;13.18;3.72;;;;;;;10.35;80.70;101944.91;5076121;28;20033;-73
2023/06/04 02:41:13;;;;;;;11.20;3.33;;;;;;;10.31;80.69;101943.34;5057907;28;20024;-73
2023/06/04 02:43:39;;;;;;;14.95;3.80;;;;;;;10.29;80.82;101942.53;5080329;28;21173;-73
2023/06/04 02:46:06;;;;;;;10.07;3.55;;;;;;;10.23;81.09;101940.19;5079611;28;20072;-73
2023/06/04 02:48:31;;;;;;;12.00;3.45;;;;;;;10.23;81.64;101941.03;5070154;28;20101;-73
2023/06/04 02:50:56;;;;;;;10.82;3.38;;;;;;;10.22;81.02;101936.66;5055138;28;20461;-73
2023/06/04 02:53:23;;;;;;;10.32;3.30;;;;;;;10.18;81.25;101939.59;5083827;28;20124;-73
2023/06/04 02:55:50;;;;;;;12.82;3.38;;;;;;;10.14;80.52;101945.09;5065844;28;20112;-73
2023/06/04 02:58:16;;;;;;;11.68;3.53;;;;;;;10.14;80.87;101945.09;5065663;28;20391;-73
2023/06/04 03:00:42;;;;;;;13.05;3.85;;;;;;;10.10;80.45;101942.66;5063964;28;20032;-73
2023/06/04 03:03:07;;;;;;;11.25;3.00;;;;;;;10.07;80.85;101946.41;5060736;28;20053;-73
2023/06/04 03:05:32;;;;;;;8.52;3.20;;;;;;;10.06;80.09;101943.78;5070419;28;20024;-73
2023/06/04 03:07:59;;;;;;;9.45;3.35;;;;;;;10.00;81.54;101945.00;5062103;28;20031;-73
2023/06/04 03:10:25;;;;;;;11.00;3.38;;;;;;;9.98;82.06;101946.88;5081017;28;20028;-73
2023/06/04 03:12:50;;;;;;;12.40;3.63;;;;;;;9.95;82.09;101939.00;5088495;28;20078;-73
2023/06/04 03:15:16;;;;;;;10.95;3.53;;;;;;;9.94;82.21;101940.81;5061252;28;20025;-73
2023/06/04 03:17:42;;;;;;;16.65;3.75;;;;;;;9.93;81.30;101941.75;5085657;28;20060;-73
2023/06/04 03:20:08;;;;;;;11.25;3.40;;;;;;;9.90;81.78;101933.88;5064343;28;20028;-73
2023/06/04 03:22:35;;;;;;;10.50;3.58;;;;;;;9.84;81.72;101944.94;5070401;28;20024;-73
2023/06/04 03:25:00;;;;;;;11.82;3.35;;;;;;;9.83;82.02;101931.59;5086205;28;20055;-73
2023/06/04 03:27:26;;;;;;;8.85;3.42;;;;;;;9.81;81.82;101929.00;5080910;28;20037;-73
2023/06/04 03:29:51;;;;;;;12.75;3.88;;;;;;;9.78;81.36;101927.34;5071033;28;20020;-73
2023/06/04 03:32:17;;;;;;;10.50;3.25;;;;;;;9.78;81.92;101930.03;5089308;28;20043;-73
2023/06/04 03:34:42;;;;;;;7.65;2.92;;;;;;;9.75;81.93;101932.88;5081230;28;20036;-73
2023/06/04 03:37:07;;;;;;;10.20;3.50;;;;;;;9.78;82.28;101932.69;5084885;28;20098;-73
2023/06/04 03:39:33;;;;;;;12.05;3.83;;;;;;;9.77;82.28;101938.16;5083814;28;20499;-73
2023/06/04 03:41:58;;;;;;;11.02;3.55;;;;;;;9.73;82.94;101934.75;5077010;28;20028;-73
2023/06/04 03:44:24;;;;;;;14.90;4.25;;;;;;;9.72;82.16;101933.03;5078442;28;20032;-73
2023/06/04 03:46:49;;;;;;;9.38;3.00;;;;;;;9.72;83.48;101940.19;5068297;28;20080;-73
2023/06/04 03:49:17;;;;;;;13.40;3.97;;;;;;;9.70;83.06;101939.41;5081063;28;20051;-73
2023/06/04 03:51:42;;;;;;;10.13;2.92;;;;;;;9.70;83.66;101942.09;5079251;28;20029;-73
2023/06/04 03:54:08;;;;;;;14.23;3.53;;;;;;;9.70;83.86;101934.91;5081379;28;20361;-73
2023/06/04 03:56:33;;;;;;;10.38;3.80;;;;;;;9.69;84.01;101943.03;5064230;28;20040;-73
2023/06/04 03:58:59;;;;;;;15.50;3.28;;;;;;;9.69;83.29;101937.69;5063330;28;20059;-73
2023/06/04 04:01:24;;;;;;;14.35;3.97;;;;;;;9.68;84.47;101936.81;5069185;28;20086;-73
2023/06/04 04:03:51;;;;;;;11.15;3.20;;;;;;;9.73;83.85;101942.78;5069411;28;20426;-73
2023/06/04 04:06:17;;;;;;;11.50;3.63;;;;;;;9.72;83.87;101942.88;5062820;28;20035;-73
2023/06/04 04:08:43;;;;;;;11.70;3.47;;;;;;;9.69;83.98;101941.22;5081044;28;20387;-73
2023/06/04 04:11:14;;;;;;;14.65;4.45;;;;;;;9.75;83.78;101942.72;5069820;28;20072;-73
2023/06/04 04:13:40;;;;;;;14.02;4.13;;;;;;;9.76;84.64;101939.09;5069300;28;20063;-73
2023/06/04 04:16:05;;;;;;;8.88;3.40;;;;;;;9.80;84.19;101938.00;5057674;28;20029;-73
2023/06/04 04:18:35;;;;;;;12.23;3.95;;;;;;;9.79;84.57;101936.25;5059697;28;20024;-73
2023/06/04 04:21:01;;;;;;;9.77;3.33;;;;;;;9.77;84.75;101949.75;5088398;28;20058;-74
2023/06/04 04:23:27;;;;;;;10.43;3.50;;;;;;;9.80;84.27;101941.53;5086241;28;20052;-73
2023/06/04 04:25:53;;;;;;;10.68;3.30;;;;;;;9.82;84.76;101935.22;5069477;28;20028;-73
2023/06/04 04:28:19;;;;;;;9.00;3.35;;;;;;;9.84;85.23;101949.41;5063409;28;20028;-73
2023/06/04 04:30:44;;;;;;;10.55;3.90;;;;;;;9.89;84.55;101936.63;5088746;28;20513;-73
2023/06/04 04:33:10;;;;;;;10.63;3.60;;;;;;;9.95;84.39;101941.69;5064381;28;20027;-73
2023/06/04 04:35:35;;;;;;;15.43;3.97;;;;;;;9.97;84.43;101937.97;5085484;28;20051;-73
2023/06/04 04:38:03;;;;;;;10.85;3.55;;;;;;;9.97;84.19;101945.13;5089252;28;20036;-73
2023/06/04 04:40:28;;;;;;;10.93;3.63;;;;;;;9.97;85.21;101945.13;5078060;28;20024;-73
2023/06/04 04:42:54;;;;;;;9.85;3.72;;;;;;;10.02;85.60;101952.97;5070484;28;20031;-73
2023/06/04 04:45:20;;;;;;;13.40;3.75;;;;;;;10.04;86.76;101946.53;5087035;28;20099;-73
2023/06/04 04:47:45;;;;;;;11.68;3.53;;;;;;;10.08;86.57;101948.13;5089299;28;20016;-73
2023/06/04 04:50:10;;;;;;;13.43;3.50;;;;;;;10.12;85.33;101960.44;5068829;28;20029;-73
2023/06/04 04:52:36;;;;;;;11.65;4.00;;;;;;;10.14;86.75;101952.31;5064245;28;20015;-73
2023/06/04 04:55:01;;;;;;;12.05;3.40;;;;;;;10.19;86.98;101954.72;5079589;28;20354;-73
2023/06/04 04:57:26;;;;;;;11.23;3.47;;;;;;;10.22;86.98;101952.78;5086739;28;20048;-73
2023/06/04 04:59:52;;;;;;;10.63;3.55;;;;;;;10.25;87.13;101951.72;5061565;28;20029;-73
2023/06/04 05:02:17;;;;;;;12.55;4.00;;;;;;;10.30;87.26;101953.19;5058742;28;20040;-74
2023/06/04 05:04:42;;;;;;;10.50;3.50;;;;;;;10.34;87.82;101948.56;5080304;28;20036;-73
2023/06/04 05:07:08;;;;;;;12.23;3.85;;;;;;;10.36;88.53;101952.03;5085921;28;20348;-74
2023/06/04 05:09:33;;;;;;;9.57;3.28;;;;;;;10.40;87.86;101956.28;5081933;28;20080;-73
2023/06/04 05:11:58;;;;;;;14.98;4.43;;;;;;;10.49;88.58;101953.09;5077250;28;20036;-73
2023/06/04 05:14:23;;;;;;;9.15;3.67;;;;;;;10.55;88.10;101956.41;5074522;28;20052;-73
2023/06/04 05:16:49;;;;;;;11.07;4.35;;;;;;;10.60;88.39;101959.69;5075675;28;20424;-73
2023/06/04 05:19:16;;;;;;;11.95;3.55;;;;;;;10.66;87.47;101956.69;5058292;28;20060;-73
2023/06/04 05:21:43;;;;;;;12.68;3.72;;;;;;;10.75;89.07;101966.91;5074399;28;20058;-74
2023/06/04 05:24:09;;;;;;;13.90;4.35;;;;;;;10.81;87.30;101961.19;5089751;28;20055;-73
2023/06/04 05:26:35;;;;;;;12.18;4.15;;;;;;;10.87;87.63;101968.03;5082143;28;20032;-74
2023/06/04 05:29:01;;;;;;;16.98;4.38;;;;;;;10.94;86.34;101964.03;5071236;28;20122;-74
2023/06/04 05:31:28;;;;;;;13.13;3.97;;;;;;;11.02;89.01;101961.78;5090655;28;20031;-73
2023/06/04 05:33:53;;;;;;;9.82;3.67;;;;;;;11.09;87.21;101967.69;5089526;28;20032;-73
2023/06/04 05:36:19;;;;;;;14.75;4.18;;;;;;;11.16;85.95;101962.81;5089681;28;20027;-74
2023/06/04 05:38:44;;;;;;;13.63;4.13;;;;;;;11.22;84.79;101956.22;5089009;28;20036;-74
2023/06/04 05:41:11;;;;;;;13.32;4.45;;;;;;;11.31;85.52;101958.38;5089241;28;20386;-74
2023/06/04 05:43:36;;;;;;;12.90;3.78;;;;;;;11.38;84.13;101954.34;5079855;28;20033;-74
2023/06/04 05:46:01;;;;;;;13.60;3.63;;;;;;;11.44;83.81;101961.22;5063775;28;20029;-74
2023/06/04 05:48:26;;;;;;;8.93;3.42;;;;;;;11.53;85.16;101960.66;5066096;28;20039;-74
2023/06/04 05:50:52;;;;;;;12.05;4.05;;;;;;;11.58;83.89;101963.94;5079787;28;20036;-74
2023/06/04 05:53:17;;;;;;;12.05;4.13;;;;;;;11.65;82.00;101964.44;5084465;28;20033;-74
2023/06/04 05:55:42;;;;;;;10.90;3.63;;;;;;;11.70;81.73;101967.72;5065217;28;20020;-74
2023/06/04 05:58:08;;;;;;;11.02;3.13;;;;;;;11.76;82.18;101967.34;5077237;28;20041;-74
2023/06/04 06:00:33;;;;;;;10.93;3.90;;;;;;;11.86;79.46;101965.84;5063544;28;20080;-74
2023/06/04 06:03:00;;;;;;;10.90;3.70;;;;;;;11.93;78.88;101969.03;5072541;28;20049;-73
2023/06/04 06:05:25;;;;;;;15.00;4.30;;;;;;;12.00;79.85;101967.69;5077669;28;20039;-74
2023/06/04 06:07:51;;;;;;;14.13;4.15;;;;;;;12.09;81.13;101970.81;5088691;28;20039;-74
2023/06/04 06:10:16;;;;;;;12.43;3.75;;;;;;;12.16;79.78;101964.94;5083233;28;20036;-73
2023/06/04 06:12:41;;;;;;;11.07;4.00;;;;;;;12.21;79.77;101973.59;5054078;28;20024;-73
2023/06/04 06:15:07;;;;;;;10.88;3.70;;;;;;;12.30;78.89;101971.28;5076759;28;20096;-73
2023/06/04 06:17:33;;;;;;;16.30;4.53;;;;;;;12.38;77.78;101977.06;5069221;28;20064;-74
2023/06/04 06:19:59;;;;;;;14.05;4.57;;;;;;;12.44;78.62;101976.66;5084784;28;20036;-73
2023/06/04 06:22:25;;;;;;;15.40;4.10;;;;;;;12.53;76.85;101973.41;5085564;28;20036;-74
2023/06/04 06:24:50;;;;;;;12.50;4.05;;;;;;;12.63;78.82;101973.66;5080625;28;20039;-74
2023/06/04 06:27:17;;;;;;;12.00;3.97;;;;;;;12.69;79.38;101983.22;5070165;28;20060;-74
2023/06/04 06:29:43;;;;;;;12.40;3.85;;;;;;;12.77;74.57;101979.06;5075909;28;20055;-73
2023/06/04 06:32:09;;;;;;;10.80;3.70;;;;;;;12.85;75.16;101975.00;5071596;28;20152;-73
2023/06/04 06:34:35;;;;;;;13.00;4.20;;;;;;;12.93;72.89;101972.66;5066258;28;20028;-74
2023/06/04 06:37:00;;;;;;;12.68;4.13;;;;;;;13.00;74.02;101978.50;5085036;28;20036;-74
2023/06/04 06:39:25;;;;;;;10.35;3.63;;;;;;;13.08;73.69;101978.88;5062152;28;20029;-74
2023/06/04 06:41:51;;;;;;;13.85;3.78;;;;;;;13.16;75.48;101989.16;5085123;28;20033;-74
2023/06/04 06:44:17;;;;;;;12.95;4.00;;;;;;;13.23;74.02;101988.66;5061153;28;20036;-73
2023/06/04 06:46:42;;;;;;;9.43;3.70;;;;;;;13.30;73.11;101983.72;5056366;28;20048;-74
2023/06/04 06:49:08;;;;;;;14.10;3.50;;;;;;;13.36;74.57;101980.63;5079639;28;20043;-74
2023/06/04 06:51:33;;;;;;;15.77;4.18;;;;;;;13.41;75.73;101985.72;5084390;28;20033;-74
2023/06/04 06:53:58;;;;;;;12.43;4.07;;;;;;;13.52;70.21;101987.72;5065036;28;20064;-76
2023/06/04 06:56:24;;;;;;;13.07;3.58;;;;;;;13.58;74.02;101990.00;5079762;28;20038;-74
2023/06/04 06:58:51;;;;;;;14.23;4.10;;;;;;;13.67;72.72;101994.78;5059462;28;20097;-74
2023/06/04 07:01:16;;;;;;;12.70;3.97;;;;;;;13.75;70.13;101996.97;5080894;28;20096;-74
2023/06/04 07:03:41;;;;;;;14.15;3.90;;;;;;;13.82;69.91;101995.53;5062876;28;20037;-74
2023/06/04 07:06:06;;;;;;;14.32;4.40;;;;;;;13.90;70.66;101998.59;5084858;28;20051;-74
2023/06/04 07:08:32;;;;;;;13.55;4.43;;;;;;;13.98;69.73;101998.94;5065380;28;20020;-75
2023/06/04 07:10:58;;;;;;;12.95;4.00;;;;;;;14.05;68.42;101999.38;5074322;28;20081;-73
2023/06/04 07:13:24;;;;;;;14.43;4.00;;;;;;;14.12;69.40;101997.09;5047528;28;20040;-70
2023/06/04 07:15:49;;;;;;;11.52;3.72;;;;;;;14.19;71.42;101997.53;5073404;28;20024;-74
2023/06/04 07:18:14;;;;;;;11.68;3.70;;;;;;;14.26;67.44;102002.41;5073885;28;20468;-72
2023/06/04 07:20:40;;;;;;;9.90;3.38;;;;;;;14.33;65.77;102001.00;5068404;28;20020;-72
2023/06/04 07:23:06;;;;;;;11.73;3.85;;;;;;;14.41;62.92;101999.59;5069656;28;20035;-72
2023/06/04 07:25:32;;;;;;;12.07;3.83;;;;;;;14.46;64.77;102003.69;5057256;28;20013;-72
2023/06/04 07:27:57;;;;;;;13.10;3.75;;;;;;;14.50;65.99;101994.38;5085051;28;20058;-73
2023/06/04 07:30:26;;;;;;;10.05;3.67;;;;;;;14.60;65.89;101996.44;5088245;28;20032;-73
2023/06/04 07:32:51;;;;;;;16.77;3.92;;;;;;;14.68;67.72;101994.06;5069696;28;20059;-71
2023/06/04 07:35:17;;;;;;;11.60;3.45;;;;;;;14.72;66.47;101997.44;5086941;28;20025;-71
2023/06/04 07:37:47;;;;;;;13.25;4.07;;;;;;;14.75;65.28;102003.47;5073249;28;20022;-73
2023/06/04 07:40:13;;;;;;;12.60;3.53;;;;;;;14.81;64.52;102003.00;5086046;28;20124;-72
2023/06/04 07:42:40;;;;;;;9.55;3.35;;;;;;;14.87;63.91;102003.56;5077476;28;20059;-73
2023/06/04 07:45:06;;;;;;;8.27;3.28;;;;;;;14.89;64.03;101996.19;5069298;28;20109;-73
2023/06/04 07:47:31;;;;;;;10.30;3.40;;;;;;;14.98;62.41;102000.94;5087118;28;20048;-72
2023/06/04 07:49:56;;;;;;;10.70;3.22;;;;;;;15.03;61.91;102004.16;5082124;28;20079;-73
2023/06/04 07:52:21;;;;;;;13.07;3.90;;;;;;;15.12;61.40;102002.59;5074415;28;20025;-73
2023/06/04 07:54:47;;;;;;;11.15;3.40;;;;;;;15.20;61.24;102003.75;5050765;28;20028;-73
2023/06/04 07:57:12;;;;;;;10.90;3.78;;;;;;;15.29;58.50;101998.66;5068115;28;20244;-73
2023/06/04 07:59:37;;;;;;;10.98;3.20;;;;;;;15.35;59.95;102000.88;5066435;28;20502;-73
2023/06/04 08:02:03;;;;;;;11.98;3.70;;;;;;;15.44;60.71;101999.34;5063656;28;20404;-72
2023/06/04 08:04:28;;;;;;;14.15;3.90;;;;;;;15.51;58.58;102000.59;5082463;28;20021;-73
2023/06/04 08:06:55;;;;;;;9.27;3.65;;;;;;;15.54;59.45;101995.78;5066591;28;20037;-73
2023/06/04 08:09:20;;;;;;;10.00;3.17;;;;;;;15.65;61.19;102000.41;5067659;28;20020;-73
2023/06/04 08:11:45;;;;;;;12.00;3.67;;;;;;;15.70;59.00;101998.19;5085625;28;20016;-73
2023/06/04 08:14:12;;;;;;;13.68;3.47;;;;;;;15.73;56.70;102000.66;5065866;28;20032;-73
2023/06/04 08:16:38;;;;;;;10.05;3.08;;;;;;;15.80;58.45;102005.66;5080078;28;20019;-74
2023/06/04 08:19:03;;;;;;;9.88;2.90;;;;;;;15.83;57.40;102000.88;5085315;28;20060;-73
2023/06/04 08:21:28;;;;;;;12.10;3.40;;;;;;;15.94;58.47;102004.59;5086133;28;20040;-74
2023/06/04 08:23:55;;;;;;;10.52;3.30;;;;;;;15.99;58.91;102005.09;5067270;28;20103;-73
2023/06/04 08:26:20;;;;;;;14.73;3.40;;;;;;;16.09;57.88;102008.81;5067860;28;20024;-73
2023/06/04 08:28:49;;;;;;;10.85;3.55;;;;;;;16.18;55.50;102012.63;5050225;28;20032;-73
2023/06/04 08:31:15;;;;;;;9.73;3.35;;;;;;;16.27;53.42;102001.09;5084336;28;20028;-73
2023/06/04 08:33:41;;;;;;;11.00;3.80;;;;;;;16.35;58.59;102004.03;5077623;28;20132;-73
2023/06/04 08:36:06;;;;;;;8.55;3.00;;;;;;;16.43;57.02;102004.28;5085815;28;20023;-74
2023/06/04 08:38:32;;;;;;;6.70;2.83;;;;;;;16.50;53.84;102006.50;5075857;28;20024;-73
2023/06/04 08:41:09;;;;;;;10.05;3.30;;;;;;;16.56;52.52;102006.91;5058644;28;20029;-73
2023/06/04 08:43:36;;;;;;;9.45;3.15;;;;;;;16.67;51.86;102007.88;5080434;28;20044;-73
2023/06/04 08:46:08;;;;;;;14.32;3.22;;;;;;;16.70;50.52;102002.19;5083305;28;20054;-73
2023/06/04 08:48:34;;;;;;;9.85;2.72;;;;;;;16.69;53.92;102004.06;5067495;28;20042;-74
2023/06/04 08:51:01;;;;;;;8.57;3.08;;;;;;;16.83;55.25;102007.50;5073473;28;20488;-73
2023/06/04 08:53:27;;;;;;;10.23;2.50;;;;;;;16.84;54.59;102003.78;5051847;28;20020;-74
2023/06/04 08:55:53;;;;;;;13.82;3.45;;;;;;;16.94;49.70;102005.66;5066000;28;20107;-75
2023/06/04 08:58:19;;;;;;;5.53;2.50;;;;;;;16.97;47.69;102010.00;5057923;28;20056;-74
2023/06/04 09:00:45;;;;;;;7.45;2.58;;;;;;;17.05;46.27;102010.19;5060384;28;20393;-73
2023/06/04 09:03:12;;;;;;;7.70;2.80;;;;;;;17.18;49.31;102011.91;5079446;28;20041;-74
2023/06/04 09:05:39;;;;;;;8.15;2.90;;;;;;;17.24;51.48;102022.28;5080703;28;20020;-74
2023/06/04 09:08:08;;;;;;;11.68;2.58;;;;;;;17.27;47.06;102016.56;5079543;28;20040;-74
2023/06/04 09:10:37;;;;;;;9.45;2.70;;;;;;;17.33;46.25;102012.50;5079973;28;20039;-73
2023/06/04 09:13:04;;;;;;;7.72;2.50;;;;;;;17.41;49.23;102016.28;5063259;28;20036;-74
2023/06/04 09:15:29;;;;;;;8.13;2.42;;;;;;;17.52;49.09;102009.94;5062142;28;20029;-74
2023/06/04 09:17:55;;;;;;;7.88;2.72;;;;;;;17.47;48.44;102007.63;5072126;28;20051;-75
2023/06/04 09:20:21;;;;;;;7.53;2.28;;;;;;;17.59;48.54;102018.44;5068073;28;20020;-75
2023/06/04 09:22:47;;;;;;;5.57;2.50;;;;;;;17.65;45.46;102012.47;5089443;28;20154;-75
2023/06/04 09:25:27;;;;;;;6.07;2.30;;;;;;;17.68;46.21;102006.78;5089674;28;20080;-75
2023/06/04 09:27:55;;;;;;;4.60;2.08;;;;;;;17.70;43.05;102009.38;5073944;28;20028;-75
2023/06/04 09:30:21;;;;;;;8.30;2.53;;;;;;;17.76;45.07;102017.88;5090557;28;20032;-75
2023/06/04 09:32:47;;;;;;;3.53;2.10;;;;;;;17.77;43.77;102007.84;5091340;28;20080;-76
2023/06/04 09:35:17;;;;;;;4.05;2.28;;;;;;;17.82;44.93;102011.91;5089378;28;20033;-76
2023/06/04 09:37:51;;;;;;;6.10;2.20;;;;;;;17.86;43.78;102017.94;5065700;28;20024;-75
2023/06/04 09:40:16;;;;;;;7.78;2.13;;;;;;;17.92;44.24;102013.84;5092687;28;20083;-75
2023/06/04 09:42:46;;;;;;;12.05;2.78;;;;;;;18.01;43.47;102013.09;5095224;28;20114;-76
2023/06/04 09:45:12;;;;;;;5.75;2.20;;;;;;;18.03;47.96;102010.22;5096331;28;20032;-76
2023/06/04 09:47:44;;;;;;;5.05;2.25;;;;;;;18.10;43.02;102017.72;5096911;28;20321;-75
2023/06/04 09:50:13;;;;;;;8.15;1.90;;;;;;;18.14;42.56;102016.47;5062517;28;20048;-76
2023/06/04 09:52:39;;;;;;;7.45;2.50;;;;;;;18.21;40.38;102005.03;5083880;28;20056;-75
2023/06/04 09:55:18;;;;;;;5.68;2.08;;;;;;;18.24;44.02;102012.91;5062621;28;20037;-74
2023/06/04 09:57:49;;;;;;;6.03;2.40;;;;;;;18.29;43.70;102007.94;5079219;28;20037;-75
2023/06/04 10:00:22;;;;;;;6.15;2.42;;;;;;;18.32;42.87;102002.25;5088414;28;20050;-75
2023/06/04 10:02:49;;;;;;;5.72;2.65;;;;;;;18.42;43.90;102002.25;5070548;28;20036;-75
2023/06/04 10:05:15;;;;;;;10.75;2.10;;;;;;;18.50;48.25;102003.31;5077376;28;20059;-75
2023/06/04 10:07:45;;;;;;;3.80;2.08;;;;;;;18.54;44.45;101992.16;5094537;28;20027;-75
2023/06/04 10:10:15;;;;;;;5.03;1.92;;;;;;;18.61;45.34;101991.47;5074905;28;20051;-76
2023/06/04 10:12:41;;;;;;;5.93;1.92;;;;;;;18.65;43.45;101994.78;5089311;28;20035;-75
2023/06/04 10:15:12;;;;;;;7.63;2.35;;;;;;;18.65;40.74;102003.81;5061445;28;20036;-75
2023/06/04 10:17:38;;;;;;;4.93;2.03;;;;;;;18.71;38.62;102001.53;5073319;28;20009;-77
2023/06/04 10:20:05;;;;;;;6.38;2.15;;;;;;;18.80;38.83;102006.16;5095157;28;20044;-74
2023/06/04 10:22:31;;;;;;;5.43;2.40;;;;;;;18.78;38.15;102006.28;5093124;28;20076;-76
2023/06/04 10:25:00;;;;;;;9.23;2.33;;;;;;;18.89;41.66;102001.75;5094007;28;20024;-75
2023/06/04 10:27:26;;;;;;;7.05;2.10;;;;;;;18.94;43.34;102004.94;5094294;28;20028;-75
2023/06/04 10:29:52;;;;;;;4.18;2.25;;;;;;;18.91;41.72;101999.78;5093798;28;20048;-76
2023/06/04 10:32:18;;;;;;;5.55;2.05;;;;;;;18.99;44.28;102002.66;5088104;28;20032;-76
2023/06/04 10:34:44;;;;;;;7.97;2.40;;;;;;;19.03;40.97;102004.09;5089754;28;20028;-76
2023/06/04 10:37:23;;;;;;;3.58;1.80;;;;;;;19.07;45.75;101986.47;5056246;28;20021;-77
2023/06/04 10:39:53;;;;;;;5.43;2.10;;;;;;;19.09;41.28;101995.34;5076968;28;20126;-75
2023/06/04 10:42:20;;;;;;;5.30;2.00;;;;;;;19.17;40.13;101998.25;5067754;28;20025;-71
2023/06/04 10:44:47;;;;;;;8.88;2.10;;;;;;;19.19;42.23;102001.69;5059397;28;20451;-72
2023/06/04 10:47:23;;;;;;;5.32;2.00;;;;;;;19.23;39.79;102002.28;5055339;28;20445;-72
2023/06/04 10:49:53;;;;;;;6.88;2.22;;;;;;;19.30;39.92;101994.41;5039860;28;20044;-72
2023/06/04 10:52:19;;;;;;;5.90;2.40;;;;;;;19.32;39.21;101998.69;5071635;28;20024;-72
2023/06/04 10:54:48;;;;;;;6.18;2.10;;;;;;;19.35;36.34;101994.84;5070504;28;20085;-71
2023/06/04 10:57:17;;;;;;;5.38;2.10;;;;;;;19.41;39.08;102007.88;5070709;28;20052;-72
2023/06/04 10:59:57;;;;;;;8.40;2.08;;;;;;;19.44;42.15;101998.56;5070695;28;20028;-72
2023/06/04 11:02:22;;;;;;;3.92;1.67;;;;;;;19.42;41.14;102004.16;5050342;28;20044;-72
2023/06/04 11:04:59;;;;;;;7.53;2.50;;;;;;;19.46;39.42;102011.06;5071513;28;20366;-72
2023/06/04 11:07:24;;;;;;;3.65;1.88;;;;;;;19.41;40.32;101999.72;5060733;28;20024;-71
2023/06/04 11:09:50;;;;;;;6.28;2.08;;;;;;;19.56;41.17;101998.28;5053562;28;20483;-71
2023/06/04 11:12:15;;;;;;;5.57;2.10;;;;;;;19.66;41.48;101991.97;5071561;28;20369;-71
2023/06/04 11:14:41;;;;;;;10.05;2.40;;;;;;;19.65;43.86;101985.66;5071067;28;20020;-72
2023/06/04 11:17:13;;;;;;;4.07;2.20;;;;;;;19.74;40.83;101990.22;5072083;28;20535;-72
2023/06/04 11:19:39;;;;;;;5.88;1.95;;;;;;;19.83;41.49;101985.81;5056258;28;20059;-72